sensor_id;sensor_type;location;lat;lon;timestamp;temperature;humidity
69715;HTU21D;56981;53.532;49.398;2024-03-06T00:00:16;-5.25;80.78
69715;HTU21D;56981;53.532;49.398;2024-03-06T00:02:43;-5.27;81.01
69715;HTU21D;56981;53.532;49.398;2024-03-06T00:05:09;-5.27;81.15
69715;HTU21D;56981;53.532;49.398;2024-03-06T00:07:36;-5.28;81.42
69715;HTU21D;56981;53.532;49.398;2024-03-06T00:10:02;-5.22;81.27
69715;HTU21D;56981;53.532;49.398;2024-03-06T00:12:32;-5.18;81.13
69715;HTU21D;56981;53.532;49.398;2024-03-06T00:14:58;-5.15;81.22
69715;HTU21D;56981;53.532;49.398;2024-03-06T00:17:24;-5.14;80.75
69715;HTU21D;56981;53.532;49.398;2024-03-06T00:19:50;-5.11;80.91
69715;HTU21D;56981;53.532;49.398;2024-03-06T00:22:17;-5.11;80.88
69715;HTU21D;56981;53.532;49.398;2024-03-06T00:24:43;-5.15;80.89
69715;HTU21D;56981;53.532;49.398;2024-03-06T00:27:10;-5.15;80.98
69715;HTU21D;56981;53.532;49.398;2024-03-06T00:29:36;-5.18;80.91
69715;HTU21D;56981;53.532;49.398;2024-03-06T00:32:04;-5.13;81.04
69715;HTU21D;56981;53.532;49.398;2024-03-06T00:34:30;-5.12;80.89
69715;HTU21D;56981;53.532;49.398;2024-03-06T00:36:57;-5.13;81.10
69715;HTU21D;56981;53.532;49.398;2024-03-06T00:39:24;-5.13;80.75
69715;HTU21D;56981;53.532;49.398;2024-03-06T00:41:50;-5.13;81.27
69715;HTU21D;56981;53.532;49.398;2024-03-06T00:44:17;-5.19;81.00
69715;HTU21D;56981;53.532;49.398;2024-03-06T00:46:43;-5.23;81.91
69715;HTU21D;56981;53.532;49.398;2024-03-06T00:49:09;-5.24;81.96
69715;HTU21D;56981;53.532;49.398;2024-03-06T00:51:36;-5.29;81.75
69715;HTU21D;56981;53.532;49.398;2024-03-06T00:54:03;-5.31;81.63
69715;HTU21D;56981;53.532;49.398;2024-03-06T00:56:30;-5.37;81.84
69715;HTU21D;56981;53.532;49.398;2024-03-06T00:58:57;-5.41;81.96
69715;HTU21D;56981;53.532;49.398;2024-03-06T01:01:23;-5.42;82.17
69715;HTU21D;56981;53.532;49.398;2024-03-06T01:03:50;-5.43;82.26
69715;HTU21D;56981;53.532;49.398;2024-03-06T01:06:16;-5.42;82.58
69715;HTU21D;56981;53.532;49.398;2024-03-06T01:08:43;-5.40;82.48
69715;HTU21D;56981;53.532;49.398;2024-03-06T01:11:11;-5.40;82.36
69715;HTU21D;56981;53.532;49.398;2024-03-06T01:13:40;-5.35;82.47
69715;HTU21D;56981;53.532;49.398;2024-03-06T01:16:07;-5.35;82.22
69715;HTU21D;56981;53.532;49.398;2024-03-06T01:18:33;-5.38;82.30
69715;HTU21D;56981;53.532;49.398;2024-03-06T01:21:00;-5.43;81.97
69715;HTU21D;56981;53.532;49.398;2024-03-06T01:23:26;-5.45;82.15
69715;HTU21D;56981;53.532;49.398;2024-03-06T01:25:52;-5.46;81.95
69715;HTU21D;56981;53.532;49.398;2024-03-06T01:28:19;-5.45;81.97
69715;HTU21D;56981;53.532;49.398;2024-03-06T01:30:45;-5.48;81.85
69715;HTU21D;56981;53.532;49.398;2024-03-06T01:33:12;-5.50;82.04
69715;HTU21D;56981;53.532;49.398;2024-03-06T01:35:38;-5.52;81.94
69715;HTU21D;56981;53.532;49.398;2024-03-06T01:38:04;-5.55;82.07
69715;HTU21D;56981;53.532;49.398;2024-03-06T01:40:31;-5.60;81.98
69715;HTU21D;56981;53.532;49.398;2024-03-06T01:42:57;-5.67;82.33
69715;HTU21D;56981;53.532;49.398;2024-03-06T01:45:24;-5.72;82.49
69715;HTU21D;56981;53.532;49.398;2024-03-06T01:47:50;-5.74;82.55
69715;HTU21D;56981;53.532;49.398;2024-03-06T01:50:16;-5.72;82.71
69715;HTU21D;56981;53.532;49.398;2024-03-06T01:52:43;-5.74;82.43
69715;HTU21D;56981;53.532;49.398;2024-03-06T01:55:10;-5.77;82.44
69715;HTU21D;56981;53.532;49.398;2024-03-06T01:57:39;-5.81;82.66
69715;HTU21D;56981;53.532;49.398;2024-03-06T02:00:08;-5.79;82.97
69715;HTU21D;56981;53.532;49.398;2024-03-06T02:02:42;-5.82;83.00
69715;HTU21D;56981;53.532;49.398;2024-03-06T02:05:10;-5.82;83.30
69715;HTU21D;56981;53.532;49.398;2024-03-06T02:07:38;-5.78;83.25
69715;HTU21D;56981;53.532;49.398;2024-03-06T02:10:08;-5.74;82.98
69715;HTU21D;56981;53.532;49.398;2024-03-06T02:12:36;-5.70;83.02
69715;HTU21D;56981;53.532;49.398;2024-03-06T02:15:04;-5.69;82.41
69715;HTU21D;56981;53.532;49.398;2024-03-06T02:17:31;-5.71;82.49
69715;HTU21D;56981;53.532;49.398;2024-03-06T02:19:58;-5.65;82.33
69715;HTU21D;56981;53.532;49.398;2024-03-06T02:22:24;-5.53;83.17
69715;HTU21D;56981;53.532;49.398;2024-03-06T02:24:51;-5.49;82.17
69715;HTU21D;56981;53.532;49.398;2024-03-06T02:27:18;-5.44;81.82
69715;HTU21D;56981;53.532;49.398;2024-03-06T02:29:44;-5.41;81.87
69715;HTU21D;56981;53.532;49.398;2024-03-06T02:32:12;-5.35;81.51
69715;HTU21D;56981;53.532;49.398;2024-03-06T02:34:40;-5.31;81.40
69715;HTU21D;56981;53.532;49.398;2024-03-06T02:37:07;-5.27;81.22
69715;HTU21D;56981;53.532;49.398;2024-03-06T02:39:34;-5.20;81.31
69715;HTU21D;56981;53.532;49.398;2024-03-06T02:42:00;-5.17;81.33
69715;HTU21D;56981;53.532;49.398;2024-03-06T02:44:27;-5.14;81.14
69715;HTU21D;56981;53.532;49.398;2024-03-06T02:46:54;-5.16;81.04
69715;HTU21D;56981;53.532;49.398;2024-03-06T02:49:20;-5.19;81.81
69715;HTU21D;56981;53.532;49.398;2024-03-06T02:51:46;-5.19;81.66
69715;HTU21D;56981;53.532;49.398;2024-03-06T02:54:13;-5.23;82.04
69715;HTU21D;56981;53.532;49.398;2024-03-06T02:56:39;-5.25;82.00
69715;HTU21D;56981;53.532;49.398;2024-03-06T02:59:06;-5.29;81.79
69715;HTU21D;56981;53.532;49.398;2024-03-06T03:01:36;-5.33;81.59
69715;HTU21D;56981;53.532;49.398;2024-03-06T03:04:02;-5.40;81.94
69715;HTU21D;56981;53.532;49.398;2024-03-06T03:06:29;-5.43;82.03
69715;HTU21D;56981;53.532;49.398;2024-03-06T03:08:56;-5.52;82.23
69715;HTU21D;56981;53.532;49.398;2024-03-06T03:11:22;-5.50;82.36
69715;HTU21D;56981;53.532;49.398;2024-03-06T03:13:48;-5.54;82.50
69715;HTU21D;56981;53.532;49.398;2024-03-06T03:16:18;-5.54;82.60
69715;HTU21D;56981;53.532;49.398;2024-03-06T03:18:45;-5.55;82.52
69715;HTU21D;56981;53.532;49.398;2024-03-06T03:21:12;-5.57;82.52
69715;HTU21D;56981;53.532;49.398;2024-03-06T03:23:41;-5.61;82.42
69715;HTU21D;56981;53.532;49.398;2024-03-06T03:26:08;-5.68;82.52
69715;HTU21D;56981;53.532;49.398;2024-03-06T03:28:41;-5.71;82.84
69715;HTU21D;56981;53.532;49.398;2024-03-06T03:31:08;-5.73;82.59
69715;HTU21D;56981;53.532;49.398;2024-03-06T03:33:36;-5.72;83.00
69715;HTU21D;56981;53.532;49.398;2024-03-06T03:36:05;-5.74;83.00
69715;HTU21D;56981;53.532;49.398;2024-03-06T03:38:33;-5.70;82.96
69715;HTU21D;56981;53.532;49.398;2024-03-06T03:41:11;-5.65;82.93
69715;HTU21D;56981;53.532;49.398;2024-03-06T03:43:42;-5.61;82.78
69715;HTU21D;56981;53.532;49.398;2024-03-06T03:46:09;-5.60;82.17
69715;HTU21D;56981;53.532;49.398;2024-03-06T03:48:35;-5.58;82.18
69715;HTU21D;56981;53.532;49.398;2024-03-06T03:51:03;-5.57;81.88
69715;HTU21D;56981;53.532;49.398;2024-03-06T03:53:31;-5.55;82.02
69715;HTU21D;56981;53.532;49.398;2024-03-06T03:55:57;-5.44;82.19
69715;HTU21D;56981;53.532;49.398;2024-03-06T03:58:23;-5.44;81.77
69715;HTU21D;56981;53.532;49.398;2024-03-06T04:00:50;-5.44;81.91
69715;HTU21D;56981;53.532;49.398;2024-03-06T04:03:19;-5.34;81.65
69715;HTU21D;56981;53.532;49.398;2024-03-06T04:05:47;-5.34;81.43
69715;HTU21D;56981;53.532;49.398;2024-03-06T04:08:13;-5.30;81.38
69715;HTU21D;56981;53.532;49.398;2024-03-06T04:10:42;-5.31;81.48
69715;HTU21D;56981;53.532;49.398;2024-03-06T04:13:11;-5.23;81.23
69715;HTU21D;56981;53.532;49.398;2024-03-06T04:15:38;-5.23;81.25
69715;HTU21D;56981;53.532;49.398;2024-03-06T04:18:05;-5.18;80.80
69715;HTU21D;56981;53.532;49.398;2024-03-06T04:20:31;-5.18;80.57
69715;HTU21D;56981;53.532;49.398;2024-03-06T04:22:58;-5.18;80.82
69715;HTU21D;56981;53.532;49.398;2024-03-06T04:25:24;-5.18;80.68
69715;HTU21D;56981;53.532;49.398;2024-03-06T04:27:50;-5.15;80.81
69715;HTU21D;56981;53.532;49.398;2024-03-06T04:30:17;-5.18;80.69
69715;HTU21D;56981;53.532;49.398;2024-03-06T04:32:43;-5.00;80.31
69715;HTU21D;56981;53.532;49.398;2024-03-06T04:35:10;-4.93;80.31
69715;HTU21D;56981;53.532;49.398;2024-03-06T04:37:37;-4.85;80.13
69715;HTU21D;56981;53.532;49.398;2024-03-06T04:40:04;-4.76;79.98
69715;HTU21D;56981;53.532;49.398;2024-03-06T04:42:34;-4.67;79.43
69715;HTU21D;56981;53.532;49.398;2024-03-06T04:45:03;-4.56;79.01
69715;HTU21D;56981;53.532;49.398;2024-03-06T04:47:29;-4.41;78.82
69715;HTU21D;56981;53.532;49.398;2024-03-06T04:49:56;-4.28;78.66
69715;HTU21D;56981;53.532;49.398;2024-03-06T04:52:24;-4.15;77.62
69715;HTU21D;56981;53.532;49.398;2024-03-06T04:54:50;-4.10;77.32
69715;HTU21D;56981;53.532;49.398;2024-03-06T04:57:17;-3.97;77.42
69715;HTU21D;56981;53.532;49.398;2024-03-06T04:59:43;-3.87;76.62
69715;HTU21D;56981;53.532;49.398;2024-03-06T05:02:09;-3.75;76.34
69715;HTU21D;56981;53.532;49.398;2024-03-06T05:04:36;-3.64;76.24
69715;HTU21D;56981;53.532;49.398;2024-03-06T05:07:03;-3.36;75.49
69715;HTU21D;56981;53.532;49.398;2024-03-06T05:09:29;-3.30;75.15
69715;HTU21D;56981;53.532;49.398;2024-03-06T05:11:56;-3.11;74.27
69715;HTU21D;56981;53.532;49.398;2024-03-06T05:14:22;-2.97;74.08
69715;HTU21D;56981;53.532;49.398;2024-03-06T05:16:48;-2.91;74.26
69715;HTU21D;56981;53.532;49.398;2024-03-06T05:19:15;-2.78;74.71
69715;HTU21D;56981;53.532;49.398;2024-03-06T05:21:41;-2.62;73.83
69715;HTU21D;56981;53.532;49.398;2024-03-06T05:24:08;-2.53;74.06
69715;HTU21D;56981;53.532;49.398;2024-03-06T05:26:34;-2.38;73.74
69715;HTU21D;56981;53.532;49.398;2024-03-06T05:29:01;-2.42;73.25
69715;HTU21D;56981;53.532;49.398;2024-03-06T05:31:27;-2.29;73.51
69715;HTU21D;56981;53.532;49.398;2024-03-06T05:33:53;-2.28;72.93
69715;HTU21D;56981;53.532;49.398;2024-03-06T05:36:20;-2.20;73.10
69715;HTU21D;56981;53.532;49.398;2024-03-06T05:38:46;-2.07;72.26
69715;HTU21D;56981;53.532;49.398;2024-03-06T05:41:14;-1.85;71.42
69715;HTU21D;56981;53.532;49.398;2024-03-06T05:43:43;-1.72;71.13
69715;HTU21D;56981;53.532;49.398;2024-03-06T05:46:10;-1.64;70.83
69715;HTU21D;56981;53.532;49.398;2024-03-06T05:48:36;-1.56;70.39
69715;HTU21D;56981;53.532;49.398;2024-03-06T05:51:03;-1.33;70.10
69715;HTU21D;56981;53.532;49.398;2024-03-06T05:53:29;-1.13;68.92
69715;HTU21D;56981;53.532;49.398;2024-03-06T05:55:55;-0.79;67.91
69715;HTU21D;56981;53.532;49.398;2024-03-06T05:58:22;-0.62;66.88
69715;HTU21D;56981;53.532;49.398;2024-03-06T06:00:48;-0.40;65.28
69715;HTU21D;56981;53.532;49.398;2024-03-06T06:03:14;-0.17;64.59
69715;HTU21D;56981;53.532;49.398;2024-03-06T06:05:42;-0.00;64.11
69715;HTU21D;56981;53.532;49.398;2024-03-06T06:08:10;0.24;63.18
69715;HTU21D;56981;53.532;49.398;2024-03-06T06:10:36;0.45;62.28
69715;HTU21D;56981;53.532;49.398;2024-03-06T06:13:02;0.48;62.52
69715;HTU21D;56981;53.532;49.398;2024-03-06T06:15:30;0.79;61.82
69715;HTU21D;56981;53.532;49.398;2024-03-06T06:17:57;1.35;59.79
69715;HTU21D;56981;53.532;49.398;2024-03-06T06:20:24;1.31;58.29
69715;HTU21D;56981;53.532;49.398;2024-03-06T06:22:51;1.14;59.15
69715;HTU21D;56981;53.532;49.398;2024-03-06T06:25:21;1.41;58.34
69715;HTU21D;56981;53.532;49.398;2024-03-06T06:27:50;1.58;58.01
69715;HTU21D;56981;53.532;49.398;2024-03-06T06:30:17;1.49;58.00
69715;HTU21D;56981;53.532;49.398;2024-03-06T06:32:52;1.85;56.67
69715;HTU21D;56981;53.532;49.398;2024-03-06T06:35:24;2.27;55.50
69715;HTU21D;56981;53.532;49.398;2024-03-06T06:37:51;2.95;53.11
69715;HTU21D;56981;53.532;49.398;2024-03-06T06:40:18;3.58;51.05
69715;HTU21D;56981;53.532;49.398;2024-03-06T06:42:50;3.23;51.91
69715;HTU21D;56981;53.532;49.398;2024-03-06T06:46:09;3.50;51.59
69715;HTU21D;56981;53.532;49.398;2024-03-06T06:48:53;3.77;52.30
69715;HTU21D;56981;53.532;49.398;2024-03-06T06:51:38;3.72;50.10
69715;HTU21D;56981;53.532;49.398;2024-03-06T06:54:04;4.06;49.67
69715;HTU21D;56981;53.532;49.398;2024-03-06T06:56:31;5.53;45.77
69715;HTU21D;56981;53.532;49.398;2024-03-06T06:58:59;5.07;45.64
69715;HTU21D;56981;53.532;49.398;2024-03-06T07:01:25;4.54;47.48
69715;HTU21D;56981;53.532;49.398;2024-03-06T07:03:53;4.16;49.23
69715;HTU21D;56981;53.532;49.398;2024-03-06T07:06:20;3.78;50.20
69715;HTU21D;56981;53.532;49.398;2024-03-06T07:08:46;3.62;49.99
69715;HTU21D;56981;53.532;49.398;2024-03-06T07:11:13;3.69;49.94
69715;HTU21D;56981;53.532;49.398;2024-03-06T07:13:40;3.50;49.95
69715;HTU21D;56981;53.532;49.398;2024-03-06T07:16:06;3.24;50.95
69715;HTU21D;56981;53.532;49.398;2024-03-06T07:18:32;3.45;49.97
69715;HTU21D;56981;53.532;49.398;2024-03-06T07:20:59;3.52;49.67
69715;HTU21D;56981;53.532;49.398;2024-03-06T07:23:25;3.83;50.47
69715;HTU21D;56981;53.532;49.398;2024-03-06T07:25:52;4.02;48.69
69715;HTU21D;56981;53.532;49.398;2024-03-06T07:28:18;3.99;49.23
69715;HTU21D;56981;53.532;49.398;2024-03-06T07:30:45;3.93;47.45
69715;HTU21D;56981;53.532;49.398;2024-03-06T07:33:11;3.64;48.90
69715;HTU21D;56981;53.532;49.398;2024-03-06T07:35:38;3.29;49.21
69715;HTU21D;56981;53.532;49.398;2024-03-06T07:38:05;3.11;50.14
69715;HTU21D;56981;53.532;49.398;2024-03-06T07:40:32;2.79;51.88
69715;HTU21D;56981;53.532;49.398;2024-03-06T07:42:58;2.71;51.66
69715;HTU21D;56981;53.532;49.398;2024-03-06T07:45:26;2.80;51.95
69715;HTU21D;56981;53.532;49.398;2024-03-06T07:47:53;3.08;50.98
69715;HTU21D;56981;53.532;49.398;2024-03-06T07:50:20;3.40;50.38
69715;HTU21D;56981;53.532;49.398;2024-03-06T07:52:46;3.00;50.39
69715;HTU21D;56981;53.532;49.398;2024-03-06T07:55:13;3.27;51.14
69715;HTU21D;56981;53.532;49.398;2024-03-06T07:57:40;3.32;50.18
69715;HTU21D;56981;53.532;49.398;2024-03-06T08:00:07;3.65;49.62
69715;HTU21D;56981;53.532;49.398;2024-03-06T08:02:45;3.29;51.27
69715;HTU21D;56981;53.532;49.398;2024-03-06T08:05:16;3.10;52.64
69715;HTU21D;56981;53.532;49.398;2024-03-06T08:07:43;2.95;52.15
69715;HTU21D;56981;53.532;49.398;2024-03-06T08:10:11;3.05;51.92
69715;HTU21D;56981;53.532;49.398;2024-03-06T08:12:44;3.18;51.71
69715;HTU21D;56981;53.532;49.398;2024-03-06T08:15:11;3.03;51.17
69715;HTU21D;56981;53.532;49.398;2024-03-06T08:17:39;2.78;51.73
69715;HTU21D;56981;53.532;49.398;2024-03-06T08:20:08;2.56;51.97
69715;HTU21D;56981;53.532;49.398;2024-03-06T08:22:37;2.28;52.46
69715;HTU21D;56981;53.532;49.398;2024-03-06T08:25:08;2.28;52.20
69715;HTU21D;56981;53.532;49.398;2024-03-06T08:27:38;2.19;53.01
69715;HTU21D;56981;53.532;49.398;2024-03-06T08:30:05;2.11;52.62
69715;HTU21D;56981;53.532;49.398;2024-03-06T08:32:33;2.29;51.91
69715;HTU21D;56981;53.532;49.398;2024-03-06T08:35:13;2.50;52.04
69715;HTU21D;56981;53.532;49.398;2024-03-06T08:37:41;2.24;52.43
69715;HTU21D;56981;53.532;49.398;2024-03-06T08:40:09;2.28;52.71
69715;HTU21D;56981;53.532;49.398;2024-03-06T08:42:47;1.92;53.03
69715;HTU21D;56981;53.532;49.398;2024-03-06T08:45:13;1.79;54.61
69715;HTU21D;56981;53.532;49.398;2024-03-06T08:47:41;1.55;54.26
69715;HTU21D;56981;53.532;49.398;2024-03-06T08:50:11;1.47;56.06
69715;HTU21D;56981;53.532;49.398;2024-03-06T08:52:38;1.41;54.71
69715;HTU21D;56981;53.532;49.398;2024-03-06T08:55:06;1.62;54.35
69715;HTU21D;56981;53.532;49.398;2024-03-06T08:57:33;1.40;53.89
69715;HTU21D;56981;53.532;49.398;2024-03-06T08:59:59;1.35;53.56
69715;HTU21D;56981;53.532;49.398;2024-03-06T09:02:29;1.47;54.49
69715;HTU21D;56981;53.532;49.398;2024-03-06T09:04:55;1.54;54.71
69715;HTU21D;56981;53.532;49.398;2024-03-06T09:07:22;1.25;54.02
69715;HTU21D;56981;53.532;49.398;2024-03-06T09:09:50;1.16;55.85
69715;HTU21D;56981;53.532;49.398;2024-03-06T09:12:17;1.28;54.06
69715;HTU21D;56981;53.532;49.398;2024-03-06T09:14:44;1.21;56.31
69715;HTU21D;56981;53.532;49.398;2024-03-06T09:17:12;1.31;55.15
69715;HTU21D;56981;53.532;49.398;2024-03-06T09:19:44;1.32;54.68
69715;HTU21D;56981;53.532;49.398;2024-03-06T09:22:10;1.31;55.65
69715;HTU21D;56981;53.532;49.398;2024-03-06T09:24:36;1.40;51.88
69715;HTU21D;56981;53.532;49.398;2024-03-06T09:27:04;0.96;52.36
69715;HTU21D;56981;53.532;49.398;2024-03-06T09:29:31;0.82;52.11
69715;HTU21D;56981;53.532;49.398;2024-03-06T09:31:57;0.80;51.94
69715;HTU21D;56981;53.532;49.398;2024-03-06T09:34:25;0.81;53.59
69715;HTU21D;56981;53.532;49.398;2024-03-06T09:36:51;1.01;54.62
69715;HTU21D;56981;53.532;49.398;2024-03-06T09:39:19;1.17;53.07
69715;HTU21D;56981;53.532;49.398;2024-03-06T09:41:53;1.20;52.54
69715;HTU21D;56981;53.532;49.398;2024-03-06T09:44:20;1.06;52.56
69715;HTU21D;56981;53.532;49.398;2024-03-06T09:47:12;0.91;52.24
69715;HTU21D;56981;53.532;49.398;2024-03-06T09:49:43;0.92;53.46
69715;HTU21D;56981;53.532;49.398;2024-03-06T09:52:10;0.86;53.01
69715;HTU21D;56981;53.532;49.398;2024-03-06T09:54:37;0.86;52.40
69715;HTU21D;56981;53.532;49.398;2024-03-06T09:57:05;0.92;52.30
69715;HTU21D;56981;53.532;49.398;2024-03-06T09:59:32;0.91;51.88
69715;HTU21D;56981;53.532;49.398;2024-03-06T10:02:00;0.89;52.57
69715;HTU21D;56981;53.532;49.398;2024-03-06T10:04:32;0.86;51.83
69715;HTU21D;56981;53.532;49.398;2024-03-06T10:07:00;0.63;53.10
69715;HTU21D;56981;53.532;49.398;2024-03-06T10:09:28;0.69;52.76
69715;HTU21D;56981;53.532;49.398;2024-03-06T10:11:59;0.69;53.16
69715;HTU21D;56981;53.532;49.398;2024-03-06T10:14:25;0.62;53.88
69715;HTU21D;56981;53.532;49.398;2024-03-06T10:16:59;0.76;53.35
69715;HTU21D;56981;53.532;49.398;2024-03-06T10:19:28;0.64;52.92
69715;HTU21D;56981;53.532;49.398;2024-03-06T10:21:55;0.55;53.60
69715;HTU21D;56981;53.532;49.398;2024-03-06T10:24:26;0.63;54.25
69715;HTU21D;56981;53.532;49.398;2024-03-06T10:26:57;0.55;54.21
69715;HTU21D;56981;53.532;49.398;2024-03-06T10:29:26;0.59;54.35
69715;HTU21D;56981;53.532;49.398;2024-03-06T10:31:59;0.43;53.93
69715;HTU21D;56981;53.532;49.398;2024-03-06T10:34:27;0.43;53.77
69715;HTU21D;56981;53.532;49.398;2024-03-06T10:36:55;0.31;54.04
69715;HTU21D;56981;53.532;49.398;2024-03-06T10:39:22;0.19;54.68
69715;HTU21D;56981;53.532;49.398;2024-03-06T10:41:53;0.28;55.42
69715;HTU21D;56981;53.532;49.398;2024-03-06T10:44:26;0.32;55.07
69715;HTU21D;56981;53.532;49.398;2024-03-06T10:47:02;0.37;54.02
69715;HTU21D;56981;53.532;49.398;2024-03-06T10:49:30;0.43;53.97
69715;HTU21D;56981;53.532;49.398;2024-03-06T10:52:01;0.45;53.77
69715;HTU21D;56981;53.532;49.398;2024-03-06T10:54:29;0.59;53.70
69715;HTU21D;56981;53.532;49.398;2024-03-06T10:56:57;0.58;53.12
69715;HTU21D;56981;53.532;49.398;2024-03-06T10:59:27;0.62;52.98
69715;HTU21D;56981;53.532;49.398;2024-03-06T11:01:56;0.67;53.32
69715;HTU21D;56981;53.532;49.398;2024-03-06T11:04:26;0.76;54.68
69715;HTU21D;56981;53.532;49.398;2024-03-06T11:06:57;0.76;52.63
69715;HTU21D;56981;53.532;49.398;2024-03-06T11:09:32;0.77;54.43
69715;HTU21D;56981;53.532;49.398;2024-03-06T11:12:01;0.83;54.23
69715;HTU21D;56981;53.532;49.398;2024-03-06T11:14:30;0.81;55.84
69715;HTU21D;56981;53.532;49.398;2024-03-06T11:19:28;0.67;55.97
69715;HTU21D;56981;53.532;49.398;2024-03-06T11:21:58;0.55;56.64
69715;HTU21D;56981;53.532;49.398;2024-03-06T11:24:33;0.35;57.87
69715;HTU21D;56981;53.532;49.398;2024-03-06T11:27:02;0.31;57.01
69715;HTU21D;56981;53.532;49.398;2024-03-06T11:30:09;0.07;55.52
69715;HTU21D;56981;53.532;49.398;2024-03-06T11:33:00;0.28;57.66
69715;HTU21D;56981;53.532;49.398;2024-03-06T11:35:30;0.10;56.26
69715;HTU21D;56981;53.532;49.398;2024-03-06T11:37:59;0.09;57.06
69715;HTU21D;56981;53.532;49.398;2024-03-06T11:40:25;0.03;55.36
69715;HTU21D;56981;53.532;49.398;2024-03-06T11:42:52;0.18;56.61
69715;HTU21D;56981;53.532;49.398;2024-03-06T11:45:19;0.09;55.59
69715;HTU21D;56981;53.532;49.398;2024-03-06T11:48:01;0.02;56.13
69715;HTU21D;56981;53.532;49.398;2024-03-06T11:50:28;-0.05;56.53
69715;HTU21D;56981;53.532;49.398;2024-03-06T11:52:58;0.01;55.97
69715;HTU21D;56981;53.532;49.398;2024-03-06T11:55:24;0.13;55.39
69715;HTU21D;56981;53.532;49.398;2024-03-06T11:57:53;0.21;55.05
69715;HTU21D;56981;53.532;49.398;2024-03-06T12:00:23;0.32;56.67
69715;HTU21D;56981;53.532;49.398;2024-03-06T12:02:50;0.18;54.75
69715;HTU21D;56981;53.532;49.398;2024-03-06T12:05:20;-0.08;55.36
69715;HTU21D;56981;53.532;49.398;2024-03-06T12:07:49;-0.13;55.36
69715;HTU21D;56981;53.532;49.398;2024-03-06T12:10:17;0.01;57.19
69715;HTU21D;56981;53.532;49.398;2024-03-06T12:12:44;0.04;55.49
69715;HTU21D;56981;53.532;49.398;2024-03-06T12:15:12;-0.00;56.42
69715;HTU21D;56981;53.532;49.398;2024-03-06T12:17:47;0.02;56.29
69715;HTU21D;56981;53.532;49.398;2024-03-06T12:20:15;-0.03;55.94
69715;HTU21D;56981;53.532;49.398;2024-03-06T12:22:50;-0.22;56.23
69715;HTU21D;56981;53.532;49.398;2024-03-06T12:25:21;-0.36;55.58
69715;HTU21D;56981;53.532;49.398;2024-03-06T12:27:49;-0.31;57.68
69715;HTU21D;56981;53.532;49.398;2024-03-06T12:30:19;-0.26;55.28
69715;HTU21D;56981;53.532;49.398;2024-03-06T12:32:59;-0.37;57.69
69715;HTU21D;56981;53.532;49.398;2024-03-06T12:35:26;-0.43;56.61
69715;HTU21D;56981;53.532;49.398;2024-03-06T12:37:53;-0.56;56.00
69715;HTU21D;56981;53.532;49.398;2024-03-06T12:40:20;-0.73;57.85
69715;HTU21D;56981;53.532;49.398;2024-03-06T12:42:46;-0.60;57.17
69715;HTU21D;56981;53.532;49.398;2024-03-06T12:45:13;-0.75;57.88
69715;HTU21D;56981;53.532;49.398;2024-03-06T12:47:43;-0.84;57.16
69715;HTU21D;56981;53.532;49.398;2024-03-06T12:50:11;-0.96;57.89
69715;HTU21D;56981;53.532;49.398;2024-03-06T12:52:38;-1.24;58.22
69715;HTU21D;56981;53.532;49.398;2024-03-06T12:55:05;-1.28;59.94
69715;HTU21D;56981;53.532;49.398;2024-03-06T12:57:32;-1.34;59.22
69715;HTU21D;56981;53.532;49.398;2024-03-06T12:59:58;-1.32;59.88
69715;HTU21D;56981;53.532;49.398;2024-03-06T13:02:25;-1.33;59.67
69715;HTU21D;56981;53.532;49.398;2024-03-06T13:04:52;-1.26;60.04
69715;HTU21D;56981;53.532;49.398;2024-03-06T13:07:19;-1.35;58.94
69715;HTU21D;56981;53.532;49.398;2024-03-06T13:09:46;-1.36;59.22
69715;HTU21D;56981;53.532;49.398;2024-03-06T13:12:12;-1.36;59.34
69715;HTU21D;56981;53.532;49.398;2024-03-06T13:14:38;-1.47;58.93
69715;HTU21D;56981;53.532;49.398;2024-03-06T13:17:04;-1.67;60.25
69715;HTU21D;56981;53.532;49.398;2024-03-06T13:19:32;-1.68;59.59
69715;HTU21D;56981;53.532;49.398;2024-03-06T13:21:58;-1.87;60.87
69715;HTU21D;56981;53.532;49.398;2024-03-06T13:24:24;-2.04;60.57
69715;HTU21D;56981;53.532;49.398;2024-03-06T13:26:51;-2.21;60.47
69715;HTU21D;56981;53.532;49.398;2024-03-06T13:29:17;-2.33;60.96
69715;HTU21D;56981;53.532;49.398;2024-03-06T13:31:44;-2.35;61.45
69715;HTU21D;56981;53.532;49.398;2024-03-06T13:34:10;-2.44;60.84
69715;HTU21D;56981;53.532;49.398;2024-03-06T13:36:36;-2.58;62.60
69715;HTU21D;56981;53.532;49.398;2024-03-06T13:39:02;-2.62;63.04
69715;HTU21D;56981;53.532;49.398;2024-03-06T13:41:29;-2.72;62.88
69715;HTU21D;56981;53.532;49.398;2024-03-06T13:43:55;-2.82;63.47
69715;HTU21D;56981;53.532;49.398;2024-03-06T13:46:22;-2.92;63.42
69715;HTU21D;56981;53.532;49.398;2024-03-06T13:48:48;-3.05;63.99
69715;HTU21D;56981;53.532;49.398;2024-03-06T13:51:15;-3.12;64.18
69715;HTU21D;56981;53.532;49.398;2024-03-06T13:53:41;-3.22;64.81
69715;HTU21D;56981;53.532;49.398;2024-03-06T13:56:08;-3.25;65.56
69715;HTU21D;56981;53.532;49.398;2024-03-06T13:58:34;-3.30;64.44
69715;HTU21D;56981;53.532;49.398;2024-03-06T14:01:00;-3.37;64.99
69715;HTU21D;56981;53.532;49.398;2024-03-06T14:03:27;-3.42;65.40
69715;HTU21D;56981;53.532;49.398;2024-03-06T14:05:54;-3.51;65.24
69715;HTU21D;56981;53.532;49.398;2024-03-06T14:08:20;-3.56;65.31
69715;HTU21D;56981;53.532;49.398;2024-03-06T14:10:48;-3.65;65.94
69715;HTU21D;56981;53.532;49.398;2024-03-06T14:13:15;-3.68;66.23
69715;HTU21D;56981;53.532;49.398;2024-03-06T14:15:41;-3.82;66.55
69715;HTU21D;56981;53.532;49.398;2024-03-06T14:18:08;-3.92;66.84
69715;HTU21D;56981;53.532;49.398;2024-03-06T14:20:34;-4.00;66.64
69715;HTU21D;56981;53.532;49.398;2024-03-06T14:23:00;-4.06;67.38
69715;HTU21D;56981;53.532;49.398;2024-03-06T14:25:27;-4.12;67.52
69715;HTU21D;56981;53.532;49.398;2024-03-06T14:27:54;-4.15;68.00
69715;HTU21D;56981;53.532;49.398;2024-03-06T14:30:20;-4.25;67.78
69715;HTU21D;56981;53.532;49.398;2024-03-06T14:32:47;-4.28;68.17
69715;HTU21D;56981;53.532;49.398;2024-03-06T14:35:13;-4.35;68.37
69715;HTU21D;56981;53.532;49.398;2024-03-06T14:37:41;-4.44;67.90
69715;HTU21D;56981;53.532;49.398;2024-03-06T14:40:08;-4.52;68.40
69715;HTU21D;56981;53.532;49.398;2024-03-06T14:42:35;-4.58;68.58
69715;HTU21D;56981;53.532;49.398;2024-03-06T14:45:01;-4.65;68.94
69715;HTU21D;56981;53.532;49.398;2024-03-06T14:47:32;-4.67;68.91
69715;HTU21D;56981;53.532;49.398;2024-03-06T14:49:58;-4.70;69.00
69715;HTU21D;56981;53.532;49.398;2024-03-06T14:52:25;-4.71;69.42
69715;HTU21D;56981;53.532;49.398;2024-03-06T14:54:52;-4.75;69.40
69715;HTU21D;56981;53.532;49.398;2024-03-06T14:57:18;-4.83;70.09
69715;HTU21D;56981;53.532;49.398;2024-03-06T14:59:45;-4.87;69.23
69715;HTU21D;56981;53.532;49.398;2024-03-06T15:02:14;-4.90;69.36
69715;HTU21D;56981;53.532;49.398;2024-03-06T15:04:40;-4.97;69.27
69715;HTU21D;56981;53.532;49.398;2024-03-06T15:07:07;-5.03;69.84
69715;HTU21D;56981;53.532;49.398;2024-03-06T15:09:34;-5.07;69.70
69715;HTU21D;56981;53.532;49.398;2024-03-06T15:12:00;-5.12;69.29
69715;HTU21D;56981;53.532;49.398;2024-03-06T15:14:29;-5.17;70.61